Indian Springs, Nevada Weather observations

Data are for observation ending at time listed.
 Day   Time    Ave.   Ave.  Ave.  Vector   Max.   Stn.    Total    Solar   Ave.  
  of    of     Air    Rel.  Wind   Wind    Wind   Baro.  Precip.   Rad.    Soil  
Year   Day     Temp.  Hum.  Speed  Dir.    Gust   Pres.                    Temp. 
2020   (PST)    F      %     mph   deg.    mph     mb.     in.     W/m2     F   
------------------------------------------------------------------------------
 152    8:50   78.3    18    2.8   260      5.3   907.4    0.00     862    82.5
 152    9:00   79.0    18    1.8   349      6.1   907.5    0.00     899    82.8
 152    9:10   79.4    18    2.4    31      4.8   907.6    0.00     921    83.1
 152    9:20   80.0    16    2.3    60      5.1   907.6    0.00     950    83.5
 152    9:30   80.2    16    1.8   276      2.9   907.5    0.00     962    83.9
 152    9:40   81.8    15    1.3    61      4.1   907.6    0.00     988    84.3
 152    9:50   82.6    16    1.3    16      4.4   907.8    0.00     975    84.7
 152   10:00   82.8    16    1.5   353      3.6   907.8    0.00     934    85.1
 152   10:10   83.2    15    2.5    51      5.0   907.8    0.00    1011    85.6
 152   10:20   82.7    15    1.8    45      6.6   907.8    0.00    1043    86.1
 152   10:30   82.5    15    3.0     2      7.4   907.8    0.00    1044    86.5
 152   10:40   83.9    14    2.4   293      6.4   907.8    0.00    1017    87.0
 152   10:50   82.9    14    2.1   295      5.8   907.8    0.00     789    87.4
 152   11:00   82.8    14    1.8   269      3.9   907.7    0.00    1004    87.9
 152   11:10   83.4    13    3.1   168      6.2   907.6    0.00    1068    88.4
 152   11:20   83.5    13    2.9   249      5.6   907.6    0.00    1071    88.8
 152   11:30   83.7    13    2.9   242      6.8   907.4    0.00     622    89.3
 152   11:40   84.0    14    2.8   307      7.3   907.3    0.00     748    89.7
 152   11:50   85.4    14    1.3   310      3.9   907.1    0.00     604    90.2
 152   12:00   85.8    13    3.5   296      8.1   907.0    0.00    1121    90.6
 152   12:10   86.5    13    3.1   307      6.6   907.1    0.00    1141    91.0
 152   12:20   87.4    13    2.6   313      5.6   907.1    0.00    1256    91.3
 152   12:30   88.1    12    1.9   347      5.1   907.2    0.00    1162    91.6
 152   12:40   88.5    12    3.1    45      9.9   907.2    0.00    1184    91.9
 152   12:50   88.2    12    5.5    87     15.6   907.0    0.00     545    92.3
 152   13:00   88.5    12    4.5    97     12.9   906.8    0.00    1078    92.7
 152   13:10   89.2    12    3.0    37      8.2   906.6    0.00     491    93.1
 152   13:20   90.6    11    4.7   103     12.9   906.6    0.00     169    93.5
 152   13:30   90.1    11    5.5    84     16.4   906.5    0.00     167    93.8
 152   13:40   90.2    11    3.7    55     10.3   906.4    0.00     291    94.1
 152   13:50   91.0    11    5.2    67     10.3   906.2    0.00     780    94.4
 152   14:00   91.8    11    2.5   360      9.6   906.1    0.00     671    94.7
 152   14:10   89.7    11    6.2   305     12.6   905.9    0.00     482    95.0
 152   14:20   90.2    11    5.8   307     12.7   905.8    0.00     936    95.2
 152   14:30   90.6    11    3.6   297     10.4   905.7    0.00     782    95.4
 152   14:40   90.0    10    4.6   298     11.3   905.7    0.00     364    95.6
 152   14:50   89.2    10    4.2   315     13.3   905.7    0.00     272    95.8
 152   15:00   89.2    11    2.5   315      7.5   905.5    0.00     269    95.9
 152   15:10   89.6     9    4.7   254     11.3   905.3    0.00     303    96.1
 152   15:20   89.8     9    5.8   252     12.1   905.1    0.00     290    96.1
 152   15:30   89.6     9    6.7   253     17.5   904.9    0.00     321    96.2
 152   15:40   89.3     9    5.9   269     12.6   904.7    0.00     193    96.3
 152   15:50   89.2     9    8.8   247     17.9   904.3    0.00     178    96.2
 152   16:00   89.2     9    5.6   180     12.1   904.0    0.00     167    96.2
 152   16:10   89.0     9    5.7    88     12.6   904.0    0.00     274    96.1
 152   16:20   89.5     9    4.9    66      9.8   903.9    0.00     315    96.0
 152   16:30   89.5     9    4.2    58     10.2   904.1    0.00     333    95.9
 152   16:40   89.2     9    4.7    72     10.6   904.1    0.00     211    95.8
 152   16:50   88.6    10    4.5   102      8.3   904.2    0.00     170    95.6
 152   17:00   88.2    10    3.3    95      8.3   904.2    0.00     167    95.5
 152   17:10   88.3    10    3.0   227     11.0   904.1    0.00     137    95.4
 152   17:20   87.5     8    8.5   234     15.0   904.0    0.00     124    95.2
 152   17:30   87.3     8    9.9   244     14.8   904.0    0.00     269    95.1
 152   17:40   87.4     9    6.6   250     15.1   904.0    0.00     146    94.9
 152   17:50   87.5     9    5.9   252     12.0   904.1    0.00     221    94.8
 152   18:00   87.3     9    6.2   251     11.4   904.1    0.00     174    94.6
 152   18:10   86.7     9    5.6   261     11.0   904.1    0.00     102    94.5
 152   18:20   86.2     9    6.3   246     12.8   904.2    0.00      67    94.3
 152   18:30   85.8     9    6.9   228     13.0   904.2    0.00      41    94.1
 152   18:40   85.4    10    8.0   240     15.0   904.2    0.00      21    94.0
 152   18:50   84.8    10    4.7   244      9.6   904.2    0.00       9    93.8
 152   19:00   83.6    11    1.3   187      3.7   904.2    0.00       3    93.6
 152   19:10   82.6    11    0.5   203      2.0   904.1    0.00       0    93.5
 152   19:20   81.8    12    1.7   316      6.5   903.9    0.00       0    93.2
 152   19:30   82.0    11    1.8   282      4.2   903.8    0.00       0    93.0
 152   19:40   81.6    11    1.8   204      6.2   903.8    0.00       0    92.8
 152   19:50   82.2    11    3.6   115      7.8   903.9    0.00       0    92.6
 152   20:00   82.3    11    2.7    54      7.2   904.0    0.00       0    92.4
 152   20:10   81.5    12    3.0   350      9.8   904.1    0.00       0    92.1
 152   20:20   81.3    12    2.1   309      7.7   904.2    0.00       0    91.9
 152   20:30   80.6    12    0.9   283      3.8   904.4    0.00       0    91.7
 152   20:40   79.9    12    0.8   213      3.6   904.6    0.00       0    91.4
 152   20:50   78.4    13    0.1    74      1.1   904.6    0.00       0    91.2
 152   21:00   76.1    15    0.3    75      1.5   904.6    0.00       0    91.0
 152   21:10   75.2    15    0.2    31      1.2   904.6    0.00       0    90.8
 152   21:20   76.0    14    1.0   182      3.7   904.5    0.00       0    90.6
 152   21:30   76.4    14    1.2   238      3.4   904.4    0.00       0    90.3
 152   21:40   75.3    14    1.5   151      3.6   904.3    0.00       0    90.1
 152   21:50   76.1    14    4.0    82     11.1   904.3    0.00       0    89.9
 152   22:00   79.2    12    3.1    68      9.5   904.3    0.00       0    89.6
 152   22:10   78.6    13    1.9    32      6.4   904.3    0.00       0    89.4
 152   22:20   77.7    13    0.5    18      2.3   904.4    0.00       0    89.2
 152   22:30   76.4    14    1.9   252      3.9   904.5    0.00       0    89.0
 152   22:40   75.6    13    1.2   235      2.3   904.6    0.00       0    88.8
 152   22:50   75.8    13    0.6   208      2.1   904.6    0.00       0    88.6
 152   23:00   74.6    14    0.5   236      3.2   904.6    0.00       0    88.4
 152   23:10   73.9    14    0.7   316      2.8   904.6    0.00       0    88.2
 152   23:20   74.1    15    0.4   227      2.1   904.5    0.00       0    88.0
 152   23:30   74.8    15    1.0   329      2.9   904.5    0.00       0    87.8
 152   23:40   75.2    15    0.5   263      1.9   904.4    0.00       0    87.6
 152   23:50   73.7    15    0.8   150      2.6   904.5    0.00       0    87.4
 153    0:00   72.3    16    0.8    81      3.2   904.5    0.00       0    87.2
 153    0:10   72.3    16    0.1   157      1.0   904.4    0.00       0    87.0
 153    0:20   71.5    17    0.1   257      0.9   904.3    0.00       0    86.8
 153    0:30   70.7    17    1.5   274      4.8   904.4    0.00       0    86.6
 153    0:40   69.6    18    0.7    85      2.7   904.5    0.00       0    86.5
 153    0:50   69.4    17    0.1    45      1.5   904.4    0.00       0    86.3
 153    1:00   68.9    18    0.4   211      2.0   904.3    0.00       0    86.1
 153    1:10   68.2    19    0.2   163      1.8   904.1    0.00       0    85.9
 153    1:20   66.8    21    1.0    78      5.0   904.0    0.00       0    85.7
 153    1:30   66.5    21    1.0   253      3.5   904.0    0.00       0    85.5
 153    1:40   67.1    19    1.4   290      2.8   904.0    0.00       0    85.4
 153    1:50   67.0    19    1.7   239      3.9   904.0    0.00       0    85.2
 153    2:00   68.1    17    2.0   253      5.0   904.0    0.00       0    85.0
 153    2:10   69.2    17    0.6   289      2.8   904.1    0.00       0    84.8
 153    2:20   67.6    19    0.0     0      0.0   904.2    0.00       0    84.6
 153    2:30   65.5    21    0.9    95      3.8   904.3    0.00       0    84.4
 153    2:40   63.8    23    0.5   142      3.1   904.2    0.00       0    84.3
 153    2:50   65.0    21    1.8   187      3.8   904.1    0.00       0    84.0
 153    3:00   65.6    21    0.1   184      0.8   904.1    0.00       0    83.9
 153    3:10   65.1    21    0.0     0      0.0   904.2    0.00       0    83.7
 153    3:20   64.5    22    0.3    55      3.2   904.3    0.00       0    83.6
 153    3:30   63.8    23    0.4   220      1.2   904.3    0.00       0    83.4
 153    3:40   64.0    24    0.6   358      3.6   904.3    0.00       0    83.2
 153    3:50   63.2    24    0.3   252      1.2   904.3    0.00       0    83.0
 153    4:00   63.1    23    0.6   225      1.8   904.3    0.00       0    82.9
 153    4:10   63.0    22    0.5   227      1.4   904.3    0.00       0    82.7
 153    4:20   63.2    22    0.3   237      1.5   904.4    0.00       0    82.6
 153    4:30   63.6    22    0.9   261      3.0   904.5    0.00       6    82.4
 153    4:40   63.0    23    0.3    98      1.4   904.5    0.00      14    82.3
 153    4:50   61.8    26    0.8   118      2.2   904.6    0.00      33    82.1
 153    5:00   62.2    26    0.4   170      1.8   904.7    0.00      67    81.9
 153    5:10   63.9    25    0.9   311      3.2   905.0    0.00      99    81.7
 153    5:20   65.2    23    0.4   180      1.2   905.2    0.00     147    81.6
 153    5:30   66.4    22    1.7   235      2.6   905.3    0.00     177    81.4
 153    5:40   69.1    20    0.5   286      1.6   905.5    0.00     236    81.3
 153    5:50   71.7    19    0.8   284      2.2   906.0    0.00     236    81.1
 153    6:00   72.4    18    0.1   311      0.9   906.4    0.00     257    81.0
 153    6:10   73.8    18    0.1    38      0.9   906.8    0.00     258    80.9
 153    6:20   75.3    16    0.0    18      0.7   907.1    0.00     244    80.9
 153    6:30   75.3    19    0.3    12      1.6   907.2    0.00     296    80.8
 153    6:40   74.9    18    0.2   322      1.3   907.5    0.00     308    80.8
 153    6:50   75.0    19    0.5    30      1.5   907.7    0.00     371    80.9
 153    7:00   76.3    17    0.2   360      1.6   907.8    0.00     493    80.9
 153    7:10   78.6    15    0.1   141      1.2   908.1    0.00     550    80.9
 153    7:20   80.0    14    0.1   326      1.6   908.3    0.00     629    80.9
 153    7:30   80.4    14    0.6    43      2.8   908.6    0.00     611    81.0
 153    7:40   80.2    14    0.7    20      2.3   908.9    0.00     720    81.1
 153    7:50   81.6    13    1.0    63      3.1   909.1    0.00     726    81.2
 153    8:00   81.6    13    1.1    58      4.4   909.2    0.00     759    81.4
 153    8:10   81.7    13    1.3    73      3.7   909.4    0.00     677    81.6
 153    8:20   81.7    13    2.5    74      5.5   909.5    0.00     703    81.9
 153    8:30   81.7    13    1.5   105      4.5   909.6    0.00     766    82.2
 153    8:40   83.7    12    1.3    50      3.6   909.7    0.00     821    82.5

Return to Indian Springs, Nevada graphs page.


Western Regional Climate Center,wrcc@dri.edu